Nashville, Tennessee
Traffic Map
Current Weather Conditions
Nashville, Tennessee
Clear
Clear
49°
Feels Like: 49°
Wind Chill: 49° Ceiling: Unl
Heat Index: 49° Visibility: 10mi
Dew Point: 31° Wind: 0mph
Humidity: 50% Direction: ° ()
Pressure: 29.99in Gusts: 0mph
Raw Report DataKBNA 250153Z 00000KT 10SM CLR 09/M01 A2999 RMK AO2 SLP154 T00941006
Traffic Incident Summary
Active as of:
Severity:
Category:
InformationThere was an issue retrieving the traffic information for this location. Please try a different location or try again shortly.
Advertisements
Track Severe Weather on mobile